Oceanside, Washington
Current Conditions -  °F | °C
As of 4:55 PM on Thursday 18 Dec 2014 (Local Time) from KAST Reporting Station
Moderate Rain Moderate Rain  
Wind Chill: 11°   Ceiling: 2500
Heat Index: 11°   Visibility: 4mi
Dew Point:   Wind: 12mph
Humidity: 89%   Direction: 150°SSE
Pressure: 29.71"   Gusts: NA
Location:  46.3832°N, 124.042°W
Report Text: KAST 190055Z AUTO 15010KT 120V200 4SM RA BR SCT019 BKN025 OVC036 11/09 A2971 RMK AO2 SLP061 P0011 T01110094
Loading
Personal Weather Stations






























Interactive Weather Map New forecast layout! Learn more

10-Day Weather Forecast

Advertisements
Track Severe Weather on mobile